Time;durP1;ratioP1;P1;durP2;ratioP2;P2;SDS_P1;SDS_P2;PMS_P1;PMS_P2;Temp;Humidity;BMP_temperature;BMP_pressure;BME280_temperature;BME280_humidity;BME280_pressure;Samples;Min_cycle;Max_cycle;Signal;HPM_P1;HPM_P2
2023/08/24 00:01:16;;;;;;;5.85;5.07;;;20.10;99.90;;;;;;4977044;28;20049;-40
2023/08/24 00:03:45;;;;;;;6.13;5.20;;;20.10;99.90;;;;;;4979050;28;20120;-37
2023/08/24 00:06:11;;;;;;;6.13;4.82;;;20.00;99.90;;;;;;4980249;28;20040;-38
2023/08/24 00:08:37;;;;;;;7.10;4.93;;;20.00;99.90;;;;;;4979186;28;20429;-38
2023/08/24 00:11:04;;;;;;;5.78;4.82;;;20.00;99.90;;;;;;4976905;28;20022;-36
2023/08/24 00:13:30;;;;;;;7.18;5.30;;;20.00;99.90;;;;;;4981685;28;20036;-39
2023/08/24 00:15:55;;;;;;;5.72;4.80;;;19.90;99.90;;;;;;4976984;28;21586;-38
2023/08/24 00:18:21;;;;;;;5.97;5.38;;;19.90;99.90;;;;;;4981598;28;20029;-31
2023/08/24 00:20:48;;;;;;;7.03;4.95;;;19.80;99.90;;;;;;4988664;28;20052;-32
2023/08/24 00:23:13;;;;;;;5.68;5.15;;;19.80;99.90;;;;;;4991698;28;20022;-32
2023/08/24 00:25:40;;;;;;;6.97;5.15;;;19.80;99.90;;;;;;4992030;28;20022;-34
2023/08/24 00:28:06;;;;;;;7.25;5.15;;;19.80;99.90;;;;;;4999309;28;20160;-34
2023/08/24 00:30:32;;;;;;;6.05;5.07;;;19.80;99.90;;;;;;4993722;28;20084;-35
2023/08/24 00:32:58;;;;;;;5.60;5.00;;;19.70;99.90;;;;;;4995357;28;20573;-39
2023/08/24 00:35:24;;;;;;;5.82;4.82;;;19.80;99.90;;;;;;4995548;28;20167;-35
2023/08/24 00:37:50;;;;;;;5.70;5.20;;;19.60;99.90;;;;;;4998504;28;20685;-34
2023/08/24 00:40:16;;;;;;;5.70;4.75;;;19.40;99.90;;;;;;4989278;28;20053;-36
2023/08/24 00:42:48;;;;;;;6.45;5.15;;;19.50;99.90;;;;;;4989924;28;20029;-36
2023/08/24 00:45:14;;;;;;;6.97;5.30;;;19.60;99.90;;;;;;4992175;28;20022;-36
2023/08/24 00:47:46;;;;;;;6.55;4.88;;;19.60;99.90;;;;;;4992527;28;20026;-37
2023/08/24 00:50:12;;;;;;;7.38;4.90;;;19.70;99.90;;;;;;4997431;28;20034;-41
2023/08/24 00:52:41;;;;;;;6.35;5.30;;;19.60;99.90;;;;;;4997034;28;20504;-40
2023/08/24 00:55:08;;;;;;;6.00;5.30;;;19.60;99.90;;;;;;4992127;28;20022;-36
2023/08/24 00:57:35;;;;;;;9.02;5.20;;;19.50;99.90;;;;;;4991025;28;20026;-40
2023/08/24 01:00:23;;;;;;;5.60;5.10;;;19.20;99.90;;;;;;4986023;28;20482;-34
2023/08/24 01:02:48;;;;;;;5.95;5.10;;;19.30;99.90;;;;;;4988641;28;20113;-34
2023/08/24 01:05:14;;;;;;;6.93;5.18;;;19.30;99.90;;;;;;4988955;28;20033;-33
2023/08/24 01:07:40;;;;;;;5.30;4.80;;;19.30;99.90;;;;;;4991805;28;20092;-34
2023/08/24 01:10:06;;;;;;;6.07;5.30;;;19.30;99.90;;;;;;4991183;28;20660;-34
2023/08/24 01:12:38;;;;;;;5.57;5.00;;;19.20;99.90;;;;;;4989960;28;20038;-36
2023/08/24 01:15:12;;;;;;;5.53;5.03;;;19.20;99.90;;;;;;4986068;28;20069;-37
2023/08/24 01:17:42;;;;;;;7.22;5.32;;;19.20;99.90;;;;;;4985257;28;20073;-34
2023/08/24 01:20:09;;;;;;;5.88;4.47;;;19.20;99.90;;;;;;4987725;28;20034;-34
2023/08/24 01:23:10;;;;;;;8.07;5.68;;;19.30;99.90;;;;;;4990104;28;20060;-32
2023/08/24 01:25:51;;;;;;;7.18;5.22;;;19.20;99.90;;;;;;4990454;28;20118;-33
2023/08/24 01:28:20;;;;;;;5.80;5.18;;;19.20;99.90;;;;;;4987880;28;20033;-32
2023/08/24 01:30:46;;;;;;;6.00;4.82;;;19.20;99.90;;;;;;4987346;28;20030;-35
2023/08/24 01:33:13;;;;;;;5.20;4.70;;;19.20;99.90;;;;;;4991430;28;20039;-36
2023/08/24 01:35:40;;;;;;;6.43;5.28;;;19.10;99.90;;;;;;4995473;28;20133;-36
2023/08/24 01:38:06;;;;;;;8.38;5.53;;;19.00;99.90;;;;;;4980112;28;20124;-37
2023/08/24 01:40:50;;;;;;;6.03;5.43;;;19.00;99.90;;;;;;4974621;28;20129;-33
2023/08/24 01:43:20;;;;;;;7.38;5.55;;;18.90;99.90;;;;;;4978149;28;20125;-32
2023/08/24 01:45:47;;;;;;;7.18;5.57;;;18.90;99.90;;;;;;4989303;28;20030;-34
2023/08/24 01:48:13;;;;;;;6.73;5.73;;;19.00;99.90;;;;;;4988839;28;20042;-32
2023/08/24 01:50:39;;;;;;;5.75;5.18;;;19.00;99.90;;;;;;4995211;28;20729;-38
2023/08/24 01:53:05;;;;;;;5.82;5.15;;;19.00;99.90;;;;;;4993466;28;20041;-36
2023/08/24 01:55:31;;;;;;;5.70;5.20;;;18.90;99.90;;;;;;5001399;28;20045;-33
2023/08/24 01:57:57;;;;;;;6.53;4.70;;;18.80;99.90;;;;;;4996715;28;20033;-39
2023/08/24 02:00:22;;;;;;;5.13;4.65;;;18.90;99.90;;;;;;4996339;28;20136;-36
2023/08/24 02:02:48;;;;;;;6.00;5.00;;;18.90;99.90;;;;;;4997411;28;20034;-37
2023/08/24 02:05:14;;;;;;;9.13;6.45;;;18.90;99.90;;;;;;4994102;28;20307;-38
2023/08/24 02:07:42;;;;;;;5.95;5.30;;;18.90;99.90;;;;;;4995790;28;20577;-36
2023/08/24 02:10:08;;;;;;;7.50;5.40;;;18.90;99.90;;;;;;4984260;28;20029;-36
2023/08/24 02:12:34;;;;;;;7.07;5.40;;;18.90;99.90;;;;;;4991581;28;20042;-36
2023/08/24 02:14:59;;;;;;;5.95;5.35;;;18.90;99.90;;;;;;4993449;28;20025;-35
2023/08/24 02:17:26;;;;;;;8.70;5.22;;;18.90;99.90;;;;;;4990668;28;20112;-35
2023/08/24 02:19:52;;;;;;;5.80;5.13;;;18.80;99.90;;;;;;4991089;28;20109;-37
2023/08/24 02:22:18;;;;;;;4.75;4.35;;;18.80;99.90;;;;;;4989278;28;20025;-38
2023/08/24 02:24:43;;;;;;;5.60;5.10;;;18.80;99.90;;;;;;4995616;28;20026;-34
2023/08/24 02:27:09;;;;;;;4.72;4.32;;;18.80;99.90;;;;;;4990469;28;20026;-38
2023/08/24 02:29:34;;;;;;;4.03;3.63;;;18.70;99.90;;;;;;4999428;28;20929;-33
2023/08/24 02:32:00;;;;;;;5.40;4.22;;;18.60;99.90;;;;;;4992347;28;20385;-32
2023/08/24 02:34:26;;;;;;;5.05;4.55;;;18.70;99.90;;;;;;5006872;28;20112;-34
2023/08/24 02:36:52;;;;;;;5.20;4.70;;;18.70;99.90;;;;;;4984773;28;20093;-38
2023/08/24 02:39:17;;;;;;;7.00;4.95;;;18.80;99.90;;;;;;4976552;28;20034;-36
2023/08/24 02:41:43;;;;;;;6.30;4.45;;;18.70;99.90;;;;;;4981137;28;20408;-38
2023/08/24 02:44:08;;;;;;;4.68;4.00;;;18.70;99.90;;;;;;4981966;28;20113;-36
2023/08/24 02:46:34;;;;;;;4.57;4.20;;;18.60;99.90;;;;;;4982267;28;20033;-34
2023/08/24 02:48:59;;;;;;;5.95;4.88;;;18.40;99.90;;;;;;4986589;28;20040;-35
2023/08/24 02:51:25;;;;;;;5.82;5.28;;;18.40;99.90;;;;;;4984833;28;20034;-36
2023/08/24 02:53:51;;;;;;;6.07;5.30;;;18.40;99.90;;;;;;4984279;28;20749;-35
2023/08/24 02:56:17;;;;;;;6.75;5.40;;;18.40;99.90;;;;;;4989413;28;20040;-34
2023/08/24 02:58:42;;;;;;;6.07;5.57;;;18.40;99.90;;;;;;4988382;28;20040;-35
2023/08/24 03:01:08;;;;;;;6.57;5.65;;;18.40;99.90;;;;;;4987851;28;20523;-39
2023/08/24 03:03:37;;;;;;;6.22;5.63;;;18.50;99.90;;;;;;4989081;28;20427;-35
2023/08/24 03:06:05;;;;;;;7.32;5.50;;;18.30;99.90;;;;;;4998195;28;20045;-36
2023/08/24 03:08:32;;;;;;;6.30;5.70;;;18.20;99.90;;;;;;4991129;28;20072;-40
2023/08/24 03:11:01;;;;;;;4.85;4.35;;;18.20;99.90;;;;;;4989196;28;20045;-40
2023/08/24 03:13:29;;;;;;;4.82;4.05;;;18.20;99.90;;;;;;4997226;28;20324;-35
2023/08/24 03:15:55;;;;;;;4.33;3.93;;;18.20;99.90;;;;;;4990513;28;20037;-40
2023/08/24 03:18:21;;;;;;;4.00;3.60;;;18.20;99.90;;;;;;4986177;28;20578;-36
2023/08/24 03:20:48;;;;;;;3.72;3.38;;;18.30;99.90;;;;;;4980647;28;20038;-35
2023/08/24 03:23:14;;;;;;;3.70;3.03;;;18.20;99.90;;;;;;4984077;28;20669;-35
2023/08/24 03:25:41;;;;;;;3.92;3.45;;;18.10;99.90;;;;;;4979728;28;20640;-36
2023/08/24 03:28:08;;;;;;;5.00;4.45;;;18.00;99.90;;;;;;4984176;28;20660;-36
2023/08/24 03:30:36;;;;;;;4.70;4.30;;;18.10;99.90;;;;;;4984713;28;20029;-35
2023/08/24 03:33:02;;;;;;;4.78;4.30;;;18.10;99.90;;;;;;4999549;28;20034;-39
2023/08/24 03:35:30;;;;;;;4.07;3.78;;;18.20;99.90;;;;;;4992714;28;20042;-37
2023/08/24 03:37:55;;;;;;;4.33;3.53;;;18.10;99.90;;;;;;4984856;28;20054;-37
2023/08/24 03:40:21;;;;;;;3.40;3.10;;;18.10;99.90;;;;;;4983301;28;20870;-34
2023/08/24 03:42:46;;;;;;;2.70;2.50;;;18.10;99.90;;;;;;4987072;28;20045;-36
2023/08/24 03:45:12;;;;;;;3.00;2.70;;;18.00;99.90;;;;;;4992658;28;20029;-38
2023/08/24 03:47:38;;;;;;;2.83;2.63;;;18.00;99.90;;;;;;4988970;28;20040;-33
2023/08/24 03:50:04;;;;;;;3.10;2.80;;;18.00;99.90;;;;;;4985376;28;20064;-37
2023/08/24 03:52:29;;;;;;;2.85;2.67;;;18.00;99.90;;;;;;4984487;28;20068;-36
2023/08/24 03:54:55;;;;;;;2.97;2.78;;;17.90;99.90;;;;;;4981125;28;20050;-37
2023/08/24 03:57:20;;;;;;;3.10;2.78;;;17.80;99.90;;;;;;4987809;28;20575;-36
2023/08/24 03:59:46;;;;;;;3.10;2.90;;;17.80;99.90;;;;;;4988828;28;22425;-33
2023/08/24 04:02:11;;;;;;;3.58;3.28;;;17.80;99.90;;;;;;4984690;28;20030;-35
2023/08/24 04:04:37;;;;;;;3.10;2.90;;;17.80;99.90;;;;;;4984490;28;20053;-34
2023/08/24 04:07:03;;;;;;;3.38;3.17;;;17.80;99.90;;;;;;4992191;28;20476;-37
2023/08/24 04:09:28;;;;;;;3.70;3.40;;;17.80;99.90;;;;;;4998900;28;20550;-34
2023/08/24 04:11:54;;;;;;;3.85;3.47;;;17.80;99.90;;;;;;4990722;28;20200;-35
2023/08/24 04:14:20;;;;;;;4.20;3.90;;;17.90;99.90;;;;;;4990348;28;20494;-37
2023/08/24 04:16:45;;;;;;;3.70;3.40;;;17.90;99.90;;;;;;4982843;28;22123;-34
2023/08/24 04:19:11;;;;;;;3.72;3.47;;;17.90;99.90;;;;;;4993635;28;20120;-34
2023/08/24 04:21:37;;;;;;;3.80;3.50;;;17.90;99.90;;;;;;4986081;28;20053;-34
2023/08/24 04:24:03;;;;;;;3.78;3.47;;;17.90;99.90;;;;;;4985400;28;20368;-37
2023/08/24 04:26:28;;;;;;;6.45;4.20;;;17.90;99.90;;;;;;4991238;28;20020;-36
2023/08/24 04:28:54;;;;;;;7.15;4.28;;;17.90;99.90;;;;;;4993956;28;20384;-38
2023/08/24 04:31:19;;;;;;;6.15;4.97;;;17.90;99.90;;;;;;4993040;28;20034;-38
2023/08/24 04:33:45;;;;;;;5.70;4.80;;;18.00;99.90;;;;;;4995684;28;20114;-38
2023/08/24 04:36:11;;;;;;;5.75;4.70;;;17.80;99.90;;;;;;4995716;28;20829;-39
2023/08/24 04:38:36;;;;;;;4.35;3.95;;;17.80;99.90;;;;;;4989397;28;20030;-37
2023/08/24 04:41:07;;;;;;;4.15;3.40;;;17.70;99.90;;;;;;4987035;28;20131;-37
2023/08/24 04:43:33;;;;;;;4.22;3.80;;;17.80;99.90;;;;;;4988991;28;20033;-37
2023/08/24 04:45:58;;;;;;;5.03;3.63;;;17.80;99.90;;;;;;4985159;28;20034;-34
2023/08/24 04:48:32;;;;;;;4.40;3.97;;;17.80;99.90;;;;;;4991787;28;20097;-39
2023/08/24 04:50:58;;;;;;;5.38;4.32;;;17.80;99.90;;;;;;4989818;28;20030;-35
2023/08/24 04:53:25;;;;;;;5.35;4.20;;;17.80;99.90;;;;;;4983802;28;20666;-36
2023/08/24 04:55:51;;;;;;;3.78;3.35;;;17.70;99.90;;;;;;4980965;28;20072;-41
2023/08/24 04:58:16;;;;;;;3.30;2.97;;;17.70;99.90;;;;;;4981772;28;20030;-39
2023/08/24 05:00:42;;;;;;;4.22;3.28;;;17.70;99.90;;;;;;4983409;28;20030;-36
2023/08/24 05:03:08;;;;;;;3.15;2.95;;;17.70;99.90;;;;;;4987225;28;20121;-39
2023/08/24 05:05:35;;;;;;;5.63;3.03;;;17.80;99.90;;;;;;4984801;28;20033;-38
2023/08/24 05:08:02;;;;;;;4.10;3.70;;;17.80;99.90;;;;;;4994693;28;20398;-38
2023/08/24 05:10:32;;;;;;;3.83;3.40;;;17.70;99.90;;;;;;4991750;28;20053;-38
2023/08/24 05:12:58;;;;;;;8.93;4.18;;;17.80;99.90;;;;;;4986626;28;20037;-37
2023/08/24 05:15:24;;;;;;;8.90;5.22;;;17.90;99.90;;;;;;4983534;28;20049;-39
2023/08/24 05:17:52;;;;;;;7.63;4.85;;;18.00;99.90;;;;;;4984376;28;20577;-37
2023/08/24 05:20:18;;;;;;;;;;;18.00;99.90;;;;;;4989230;28;20547;-38
2023/08/24 05:22:44;;;;;;;3.63;3.28;;;18.00;99.90;;;;;;4986853;28;20009;-38
2023/08/24 05:25:09;;;;;;;4.88;3.65;;;17.70;99.90;;;;;;4993481;28;20382;-36
2023/08/24 05:27:35;;;;;;;6.20;3.80;;;17.50;99.90;;;;;;4990146;28;20029;-39
2023/08/24 05:30:00;;;;;;;3.70;3.40;;;17.30;99.90;;;;;;4987330;28;20029;-38
2023/08/24 05:32:26;;;;;;;5.70;5.20;;;17.40;99.90;;;;;;4991198;28;20431;-38
2023/08/24 05:34:51;;;;;;;6.93;6.15;;;17.60;99.90;;;;;;4995227;28;20034;-37
2023/08/24 05:37:17;;;;;;;5.95;5.40;;;17.70;99.90;;;;;;4996230;28;20502;-40
2023/08/24 05:39:43;;;;;;;7.30;5.75;;;17.80;99.90;;;;;;4995795;28;20042;-31
2023/08/24 05:42:09;;;;;;;6.65;5.90;;;17.90;99.90;;;;;;5000745;28;20033;-34
2023/08/24 05:44:34;;;;;;;10.60;5.90;;;18.00;99.90;;;;;;5003430;28;20033;-31
2023/08/24 05:47:00;;;;;;;8.77;5.97;;;18.10;99.90;;;;;;4995662;28;20045;-32
2023/08/24 05:49:25;;;;;;;7.95;7.15;;;18.20;99.90;;;;;;4998406;28;20384;-34
2023/08/24 05:51:52;;;;;;;7.47;6.78;;;18.40;99.90;;;;;;4984051;28;20034;-35
2023/08/24 05:54:18;;;;;;;8.48;6.93;;;18.40;99.90;;;;;;4983793;28;21883;-31
2023/08/24 05:56:45;;;;;;;9.98;8.63;;;18.60;99.90;;;;;;4992524;28;20546;-32
2023/08/24 05:59:11;;;;;;;10.77;9.07;;;18.70;99.90;;;;;;4995233;28;20045;-34
2023/08/24 06:01:39;;;;;;;10.27;9.27;;;18.80;99.90;;;;;;4995562;28;20488;-34
2023/08/24 06:04:05;;;;;;;9.40;8.40;;;18.90;99.90;;;;;;4996854;28;20096;-33
2023/08/24 06:06:31;;;;;;;10.02;8.50;;;19.00;99.90;;;;;;4999311;28;20036;-33
2023/08/24 06:08:57;;;;;;;10.68;9.57;;;19.10;99.90;;;;;;4997336;28;20034;-34
2023/08/24 06:11:22;;;;;;;13.48;9.48;;;19.10;99.90;;;;;;4997502;28;20042;-32
2023/08/24 06:13:48;;;;;;;11.52;10.35;;;19.10;99.90;;;;;;4996390;28;20029;-30
2023/08/24 06:16:14;;;;;;;12.05;10.82;;;19.10;99.90;;;;;;4996083;28;20030;-32
2023/08/24 06:18:39;;;;;;;12.07;10.88;;;19.00;99.90;;;;;;5000081;28;20030;-32
2023/08/24 06:21:05;;;;;;;12.88;11.45;;;19.00;99.90;;;;;;5004789;28;20038;-31
2023/08/24 06:23:31;;;;;;;15.05;12.07;;;19.10;99.90;;;;;;5001428;28;20538;-31
2023/08/24 06:25:56;;;;;;;15.80;11.98;;;19.20;99.90;;;;;;4993972;28;20049;-32
2023/08/24 06:28:22;;;;;;;16.35;13.20;;;19.20;99.90;;;;;;4998016;28;20620;-34
2023/08/24 06:30:47;;;;;;;14.80;12.50;;;19.30;99.90;;;;;;4999859;28;20036;-36
2023/08/24 06:33:13;;;;;;;17.10;12.68;;;19.40;99.90;;;;;;4995488;28;20088;-32
2023/08/24 06:35:40;;;;;;;15.77;11.98;;;19.50;99.90;;;;;;4995756;28;20026;-31
2023/08/24 06:38:06;;;;;;;15.88;12.75;;;19.60;99.90;;;;;;4997530;28;20034;-34
2023/08/24 06:40:31;;;;;;;13.57;11.45;;;19.90;99.90;;;;;;4997301;28;20100;-33
2023/08/24 06:42:57;;;;;;;15.70;11.77;;;20.00;99.90;;;;;;5003919;28;20030;-30
2023/08/24 06:45:23;;;;;;;14.18;12.57;;;20.20;99.90;;;;;;5005636;28;20041;-34
2023/08/24 06:47:49;;;;;;;16.65;12.88;;;20.40;99.90;;;;;;4995495;28;20026;-36
2023/08/24 06:50:15;;;;;;;13.13;11.75;;;20.60;99.90;;;;;;4994988;28;20085;-39
2023/08/24 06:52:41;;;;;;;15.85;11.80;;;20.80;99.90;;;;;;4994765;28;20057;-39
2023/08/24 06:55:09;;;;;;;13.20;11.48;;;20.80;99.90;;;;;;4998051;28;20557;-37
2023/08/24 06:57:35;;;;;;;14.32;12.23;;;21.00;99.90;;;;;;4994588;28;20022;-40
2023/08/24 07:00:00;;;;;;;16.27;11.70;;;21.20;99.90;;;;;;4998426;28;20646;-37
2023/08/24 07:02:26;;;;;;;12.95;11.55;;;21.30;99.90;;;;;;4996684;28;20040;-40
2023/08/24 07:04:52;;;;;;;13.95;11.30;;;21.60;99.90;;;;;;4994694;28;20244;-39
2023/08/24 07:07:17;;;;;;;12.50;11.15;;;21.80;99.90;;;;;;4991823;28;20483;-39
2023/08/24 07:09:43;;;;;;;12.43;10.93;;;22.00;99.90;;;;;;4994522;28;20516;-38
2023/08/24 07:12:10;;;;;;;12.82;11.45;;;22.20;99.90;;;;;;4993141;28;20041;-37
2023/08/24 07:14:38;;;;;;;10.45;9.35;;;22.40;99.90;;;;;;4993866;28;20656;-38
2023/08/24 07:17:06;;;;;;;9.43;8.35;;;22.50;99.90;;;;;;4993100;28;20034;-35
2023/08/24 07:19:32;;;;;;;8.20;7.40;;;22.80;99.90;;;;;;4994676;28;20088;-38
2023/08/24 07:21:58;;;;;;;9.20;7.72;;;22.90;99.90;;;;;;5000058;28;20026;-38
2023/08/24 07:24:26;;;;;;;7.57;6.85;;;23.00;99.90;;;;;;4993383;28;21977;-38
2023/08/24 07:26:52;;;;;;;;;;;23.10;99.90;;;;;;4997989;28;20026;-38
2023/08/24 07:29:18;;;;;;;10.57;6.93;;;23.30;99.90;;;;;;4996276;28;19906;-39
2023/08/24 07:31:43;;;;;;;7.63;6.75;;;23.40;99.90;;;;;;4991938;28;20038;-40
2023/08/24 07:34:09;;;;;;;14.10;7.38;;;23.60;99.90;;;;;;4993404;28;20041;-38
2023/08/24 07:36:34;;;;;;;9.38;6.72;;;23.70;99.90;;;;;;4998208;28;20099;-37
2023/08/24 07:39:00;;;;;;;7.13;6.40;;;23.80;99.90;;;;;;4995199;28;20064;-38
2023/08/24 07:41:25;;;;;;;8.65;6.75;;;23.90;99.90;;;;;;5000302;28;20030;-38
2023/08/24 07:43:51;;;;;;;7.40;6.70;;;24.10;99.90;;;;;;4996736;28;20030;-37
2023/08/24 07:46:17;;;;;;;7.78;7.07;;;24.20;99.90;;;;;;4993296;28;20022;-38
2023/08/24 07:48:42;;;;;;;8.32;6.80;;;24.30;99.90;;;;;;5000934;28;20387;-38
2023/08/24 07:51:08;;;;;;;11.07;6.95;;;24.50;99.90;;;;;;4998113;28;20117;-39
2023/08/24 07:53:34;;;;;;;10.70;7.88;;;24.60;99.90;;;;;;4994134;28;20371;-35
2023/08/24 07:56:01;;;;;;;10.00;7.70;;;24.70;99.90;;;;;;4999209;28;20026;-38
2023/08/24 07:58:27;;;;;;;8.07;7.28;;;24.70;99.90;;;;;;4991438;28;20027;-32
2023/08/24 08:00:53;;;;;;;9.32;7.20;;;24.80;99.90;;;;;;4997389;28;20040;-37
2023/08/24 08:03:19;;;;;;;12.45;7.28;;;24.90;99.90;;;;;;4988737;28;20025;-35
2023/08/24 08:05:46;;;;;;;7.60;6.88;;;25.00;99.90;;;;;;4989806;28;20031;-34
2023/08/24 08:08:14;;;;;;;8.05;6.50;;;25.30;99.90;;;;;;4996744;28;20041;-34
2023/08/24 08:10:39;;;;;;;;;;;25.70;99.90;;;;;;4993131;28;20042;-33
2023/08/24 08:13:07;;;;;;;7.28;6.07;;;25.80;99.90;;;;;;4993361;28;19924;-33
2023/08/24 08:15:32;;;;;;;8.10;6.25;;;25.90;99.90;;;;;;4995851;28;20518;-35
2023/08/24 08:17:58;;;;;;;7.15;6.47;;;25.80;99.90;;;;;;4995405;28;20034;-38
2023/08/24 08:20:24;;;;;;;10.27;6.75;;;25.80;99.90;;;;;;4996563;28;20052;-34
2023/08/24 08:22:50;;;;;;;8.10;6.95;;;25.80;99.90;;;;;;5000478;28;20030;-33
2023/08/24 08:25:17;;;;;;;8.52;7.40;;;25.60;99.90;;;;;;4995150;28;20031;-38
2023/08/24 08:27:43;;;;;;;7.97;7.28;;;25.40;99.90;;;;;;5001112;28;20041;-32
2023/08/24 08:30:10;;;;;;;8.52;6.95;;;25.30;99.90;;;;;;4992410;28;20496;-35
2023/08/24 08:32:35;;;;;;;9.68;7.32;;;25.20;99.90;;;;;;4993864;28;20037;-32
2023/08/24 08:35:01;;;;;;;7.13;6.47;;;25.20;99.90;;;;;;4997761;28;20049;-35
2023/08/24 08:37:27;;;;;;;7.30;6.60;;;25.20;99.90;;;;;;4997488;28;20049;-34
2023/08/24 08:39:53;;;;;;;8.80;6.50;;;25.30;99.90;;;;;;4988366;28;20364;-35
2023/08/24 08:42:18;;;;;;;10.90;6.47;;;25.50;99.90;;;;;;4986316;28;20029;-35
2023/08/24 08:44:46;;;;;;;8.55;6.65;;;25.80;99.90;;;;;;4984404;28;20499;-35
2023/08/24 08:47:13;;;;;;;8.93;6.97;;;25.80;99.90;;;;;;4991021;28;20029;-34
2023/08/24 08:49:39;;;;;;;10.13;6.40;;;25.80;99.90;;;;;;4996690;28;20030;-33
2023/08/24 08:52:05;;;;;;;8.13;6.93;;;25.60;99.90;;;;;;4995730;28;20042;-34
2023/08/24 08:54:32;;;;;;;10.35;6.72;;;25.70;99.90;;;;;;4991983;28;20125;-34
2023/08/24 08:56:59;;;;;;;11.68;7.13;;;25.70;99.90;;;;;;4997584;28;20109;-39
2023/08/24 08:59:29;;;;;;;10.13;7.22;;;25.90;99.90;;;;;;4998468;28;20038;-36
2023/08/24 09:02:01;;;;;;;10.93;7.20;;;26.40;99.90;;;;;;4997202;28;20034;-34
2023/08/24 09:04:35;;;;;;;9.88;7.10;;;26.40;99.90;;;;;;4995709;28;20417;-34
2023/08/24 09:07:04;;;;;;;10.10;6.68;;;26.60;99.90;;;;;;4994340;28;20026;-35
2023/08/24 09:09:30;;;;;;;9.80;7.40;;;26.90;99.90;;;;;;4995859;28;20026;-33
2023/08/24 09:11:55;;;;;;;8.88;7.22;;;26.90;99.90;;;;;;4998438;28;20069;-35
2023/08/24 09:14:21;;;;;;;8.10;7.30;;;26.80;99.90;;;;;;4997161;28;20030;-35
2023/08/24 09:16:47;;;;;;;7.55;6.85;;;26.90;99.90;;;;;;4996372;28;20035;-34
2023/08/24 09:19:13;;;;;;;9.43;7.70;;;27.20;99.90;;;;;;4996168;28;20098;-32
2023/08/24 09:21:39;;;;;;;10.45;7.50;;;27.20;99.90;;;;;;4998824;28;20036;-34
2023/08/24 09:24:06;;;;;;;10.65;7.07;;;27.30;99.90;;;;;;4991831;28;20168;-35
2023/08/24 09:26:33;;;;;;;11.50;7.37;;;27.20;99.90;;;;;;4996292;28;20022;-32
2023/08/24 09:29:00;;;;;;;11.63;8.00;;;27.30;99.90;;;;;;4999432;28;20364;-37
2023/08/24 09:31:38;;;;;;;9.32;8.20;;;27.50;99.90;;;;;;4993819;28;20041;-36
2023/08/24 09:34:05;;;;;;;10.63;8.00;;;27.40;99.90;;;;;;4996117;28;20037;-37
2023/08/24 09:36:35;;;;;;;7.97;6.95;;;27.30;99.90;;;;;;5000338;28;20081;-32
2023/08/24 09:39:04;;;;;;;8.85;7.82;;;27.50;99.90;;;;;;4994751;28;20030;-34
2023/08/24 09:41:40;;;;;;;9.40;8.40;;;27.70;99.90;;;;;;4996296;28;20049;-32
2023/08/24 09:44:08;;;;;;;8.43;7.57;;;27.50;99.90;;;;;;4998135;28;20037;-33
2023/08/24 09:46:36;;;;;;;9.52;7.32;;;27.50;99.90;;;;;;4996824;28;20145;-34
2023/08/24 09:49:01;;;;;;;9.38;7.60;;;27.60;99.90;;;;;;4999658;28;20038;-34
2023/08/24 09:51:27;;;;;;;9.93;8.20;;;27.80;99.90;;;;;;4995961;28;20033;-32
2023/08/24 09:53:57;;;;;;;11.93;8.45;;;27.90;99.90;;;;;;4996639;28;20045;-32
2023/08/24 09:56:28;;;;;;;8.35;7.25;;;27.90;99.90;;;;;;4997890;28;20069;-32
2023/08/24 09:58:57;;;;;;;8.93;8.00;;;28.00;99.90;;;;;;4997039;28;20372;-35
2023/08/24 10:01:24;;;;;;;8.73;6.95;;;28.10;99.90;;;;;;4996212;28;20041;-32
2023/08/24 10:03:56;;;;;;;10.00;7.00;;;28.40;99.90;;;;;;4994851;28;20100;-33
2023/08/24 10:06:23;;;;;;;9.57;7.45;;;28.50;99.90;;;;;;4998494;28;20045;-32
2023/08/24 10:08:55;;;;;;;8.25;7.45;;;28.80;99.90;;;;;;5001786;28;20030;-34
2023/08/24 10:11:27;;;;;;;8.18;6.80;;;28.80;99.90;;;;;;4998588;28;20129;-35
2023/08/24 10:14:02;;;;;;;8.00;7.15;;;28.70;99.90;;;;;;4999456;28;20117;-32
2023/08/24 10:16:30;;;;;;;8.57;7.13;;;28.80;99.90;;;;;;4999367;28;20512;-32
2023/08/24 10:18:55;;;;;;;8.00;7.22;;;28.90;99.90;;;;;;4998530;28;20065;-31
2023/08/24 10:21:25;;;;;;;7.88;7.07;;;29.00;99.90;;;;;;5003667;28;20070;-32
2023/08/24 10:23:52;;;;;;;9.90;6.63;;;29.00;99.90;;;;;;4998054;28;20769;-31
2023/08/24 10:26:19;;;;;;;12.98;6.80;;;29.10;99.90;;;;;;5000930;28;20029;-30
2023/08/24 10:28:46;;;;;;;6.93;5.90;;;29.20;99.90;;;;;;5003067;28;20415;-32
2023/08/24 10:31:12;;;;;;;7.95;6.57;;;29.20;99.90;;;;;;4995979;28;20046;-32
2023/08/24 10:33:38;;;;;;;10.23;6.00;;;29.10;99.90;;;;;;5000089;28;20029;-31
2023/08/24 10:36:06;;;;;;;9.25;6.05;;;29.10;99.90;;;;;;5001183;28;20065;-36
2023/08/24 10:38:34;;;;;;;;;;;29.10;99.90;;;;;;5001566;28;20030;-30
2023/08/24 10:41:12;;;;;;;7.70;6.40;;;29.20;99.90;;;;;;5002425;28;19914;-33
2023/08/24 10:43:38;;;;;;;6.30;5.28;;;29.20;99.90;;;;;;5000204;28;20113;-31
2023/08/24 10:46:11;;;;;;;7.07;5.72;;;29.30;99.90;;;;;;4999245;28;20025;-33
2023/08/24 10:48:40;;;;;;;7.32;6.05;;;29.50;99.90;;;;;;4997047;28;20109;-30
2023/08/24 10:51:28;;;;;;;9.05;6.18;;;29.60;99.90;;;;;;4996310;28;20029;-31
2023/08/24 10:53:57;;;;;;;11.85;6.20;;;30.20;99.90;;;;;;4998552;28;20030;-33
2023/08/24 10:56:40;;;;;;;7.65;5.20;;;30.20;99.90;;;;;;5006036;28;20026;-33
2023/08/24 10:59:15;;;;;;;5.30;4.78;;;30.20;99.90;;;;;;4997653;28;20029;-32
2023/08/24 11:01:55;;;;;;;9.40;5.60;;;30.10;99.90;;;;;;5000335;28;20041;-32
2023/08/24 11:04:21;;;;;;;7.93;4.28;;;30.10;99.90;;;;;;5003282;28;20038;-33
2023/08/24 11:07:02;;;;;;;5.65;3.67;;;30.10;99.90;;;;;;5004074;28;20135;-32
2023/08/24 11:09:47;;;;;;;4.18;3.75;;;30.10;99.90;;;;;;4987926;28;20026;-32
2023/08/24 11:12:13;;;;;;;5.85;4.03;;;30.20;99.90;;;;;;4998815;28;20033;-32
2023/08/24 11:14:58;;;;;;;5.28;4.38;;;30.10;99.90;;;;;;4997860;28;20017;-31
2023/08/24 11:17:29;;;;;;;5.25;4.15;;;30.40;99.90;;;;;;5002404;28;20108;-34
2023/08/24 11:19:55;;;;;;;5.90;4.35;;;30.60;99.90;;;;;;5000719;28;20054;-31
2023/08/24 11:22:21;;;;;;;6.70;4.40;;;30.80;99.90;;;;;;4998554;28;20387;-32
2023/08/24 11:24:47;;;;;;;5.88;3.75;;;31.10;99.90;;;;;;5005473;28;20464;-32
2023/08/24 11:27:13;;;;;;;5.72;4.40;;;30.90;99.90;;;;;;4997401;28;20072;-33
2023/08/24 11:29:38;;;;;;;4.65;4.25;;;30.60;99.90;;;;;;4997995;28;20032;-34
2023/08/24 11:32:04;;;;;;;5.82;4.95;;;30.30;99.90;;;;;;4997943;28;20026;-39
2023/08/24 11:34:30;;;;;;;5.63;4.70;;;30.50;99.90;;;;;;4997733;28;20048;-33
2023/08/24 11:36:56;;;;;;;5.65;4.50;;;30.80;99.90;;;;;;5003365;28;20050;-33
2023/08/24 11:39:24;;;;;;;7.03;4.57;;;30.80;99.90;;;;;;4995045;28;20451;-34
2023/08/24 11:42:04;;;;;;;5.35;4.50;;;31.10;99.90;;;;;;5003687;28;20099;-32
2023/08/24 11:44:46;;;;;;;7.50;4.78;;;31.30;99.90;;;;;;4998364;28;20034;-34
2023/08/24 11:47:11;;;;;;;5.38;4.88;;;31.20;99.90;;;;;;4998042;28;20124;-33
2023/08/24 11:49:37;;;;;;;4.72;4.32;;;31.10;99.90;;;;;;4994046;28;20587;-32
2023/08/24 11:52:03;;;;;;;6.65;4.78;;;31.20;99.90;;;;;;4998187;28;20037;-36
2023/08/24 11:54:31;;;;;;;4.80;4.30;;;31.40;99.90;;;;;;4999429;28;20072;-32
2023/08/24 11:56:57;;;;;;;5.25;4.30;;;31.30;99.90;;;;;;5002115;28;20025;-33
2023/08/24 11:59:23;;;;;;;4.88;4.13;;;31.30;99.90;;;;;;4998911;28;20037;-34
2023/08/24 12:01:49;;;;;;;7.35;4.68;;;31.30;99.90;;;;;;4992878;28;20496;-32
2023/08/24 12:04:15;;;;;;;7.55;4.72;;;31.20;99.90;;;;;;4997428;28;20466;-36
2023/08/24 12:06:40;;;;;;;6.95;4.80;;;31.00;99.90;;;;;;4993833;28;20037;-34
2023/08/24 12:09:06;;;;;;;8.45;4.60;;;31.00;99.90;;;;;;4997646;28;20089;-36
2023/08/24 12:11:36;;;;;;;6.25;4.82;;;30.70;99.90;;;;;;4999308;28;20403;-36
2023/08/24 12:14:02;;;;;;;6.35;4.43;;;30.70;99.90;;;;;;4999640;28;20504;-33
2023/08/24 12:16:32;;;;;;;6.30;4.68;;;31.00;99.90;;;;;;4997199;28;20123;-32
2023/08/24 12:19:03;;;;;;;6.40;4.88;;;31.10;99.90;;;;;;4991110;28;20376;-34
2023/08/24 12:21:29;;;;;;;5.50;4.72;;;31.10;99.90;;;;;;4995155;28;20292;-36
2023/08/24 12:23:56;;;;;;;9.02;4.97;;;31.10;99.90;;;;;;4997280;28;20037;-34
2023/08/24 12:26:21;;;;;;;7.33;4.90;;;31.50;99.90;;;;;;5000568;28;20075;-32
2023/08/24 12:28:54;;;;;;;7.32;4.55;;;31.50;99.90;;;;;;4998265;28;20784;-32
2023/08/24 12:31:20;;;;;;;11.88;5.65;;;31.50;99.90;;;;;;4998817;28;20403;-34
2023/08/24 12:33:46;;;;;;;5.57;4.75;;;31.60;99.90;;;;;;4995630;28;20026;-33
2023/08/24 12:36:12;;;;;;;8.57;4.63;;;31.50;99.90;;;;;;4999102;28;20049;-37
2023/08/24 12:38:38;;;;;;;6.07;4.93;;;31.40;99.90;;;;;;4999962;28;20030;-39
2023/08/24 12:41:04;;;;;;;5.22;4.78;;;31.30;99.90;;;;;;4993025;28;20050;-37
2023/08/24 12:43:30;;;;;;;6.78;4.70;;;31.30;99.90;;;;;;4997235;28;20037;-41
2023/08/24 12:45:55;;;;;;;8.00;4.97;;;31.40;99.90;;;;;;4995862;28;20511;-37